sensor_id;sensor_type;location;lat;lon;timestamp;temperature;humidity
13072;DHT22;6602;58.934;11.166;2023-07-13T00:03:29;16.10;99.90
13072;DHT22;6602;58.934;11.166;2023-07-13T00:08:54;16.10;99.90
13072;DHT22;6602;58.934;11.166;2023-07-13T00:14:01;16.10;99.90
13072;DHT22;6602;58.934;11.166;2023-07-13T00:19:05;16.10;99.90
13072;DHT22;6602;58.934;11.166;2023-07-13T00:24:08;16.10;99.90
13072;DHT22;6602;58.934;11.166;2023-07-13T00:29:32;16.00;99.90
13072;DHT22;6602;58.934;11.166;2023-07-13T00:34:34;16.00;99.90
13072;DHT22;6602;58.934;11.166;2023-07-13T00:39:36;16.00;99.90
13072;DHT22;6602;58.934;11.166;2023-07-13T00:50:22;16.00;99.90
13072;DHT22;6602;58.934;11.166;2023-07-13T00:55:24;16.00;99.90
13072;DHT22;6602;58.934;11.166;2023-07-13T01:00:40;16.00;99.90
13072;DHT22;6602;58.934;11.166;2023-07-13T01:05:43;16.00;99.90
13072;DHT22;6602;58.934;11.166;2023-07-13T01:10:56;16.00;99.90
13072;DHT22;6602;58.934;11.166;2023-07-13T01:16:03;16.00;99.90
13072;DHT22;6602;58.934;11.166;2023-07-13T01:21:08;15.90;99.90
13072;DHT22;6602;58.934;11.166;2023-07-13T01:26:11;15.90;99.90
13072;DHT22;6602;58.934;11.166;2023-07-13T01:31:30;15.90;99.90
13072;DHT22;6602;58.934;11.166;2023-07-13T01:36:37;15.80;99.90
13072;DHT22;6602;58.934;11.166;2023-07-13T01:41:44;15.80;99.90
13072;DHT22;6602;58.934;11.166;2023-07-13T01:46:46;15.80;99.90
13072;DHT22;6602;58.934;11.166;2023-07-13T01:51:48;15.80;99.90
13072;DHT22;6602;58.934;11.166;2023-07-13T01:57:04;15.80;99.90
13072;DHT22;6602;58.934;11.166;2023-07-13T02:02:11;15.80;99.90
13072;DHT22;6602;58.934;11.166;2023-07-13T02:07:22;15.80;99.90
13072;DHT22;6602;58.934;11.166;2023-07-13T02:12:41;15.80;99.90
13072;DHT22;6602;58.934;11.166;2023-07-13T02:17:45;15.80;99.90
13072;DHT22;6602;58.934;11.166;2023-07-13T02:23:06;15.80;99.90
13072;DHT22;6602;58.934;11.166;2023-07-13T02:28:34;15.90;99.90
13072;DHT22;6602;58.934;11.166;2023-07-13T02:33:54;15.80;99.90
13072;DHT22;6602;58.934;11.166;2023-07-13T02:39:11;15.80;99.90
13072;DHT22;6602;58.934;11.166;2023-07-13T02:44:16;15.80;99.90
13072;DHT22;6602;58.934;11.166;2023-07-13T02:49:30;15.90;99.90
13072;DHT22;6602;58.934;11.166;2023-07-13T02:54:45;15.80;99.90
13072;DHT22;6602;58.934;11.166;2023-07-13T02:59:49;15.80;99.90
13072;DHT22;6602;58.934;11.166;2023-07-13T03:04:50;15.80;99.90
13072;DHT22;6602;58.934;11.166;2023-07-13T03:09:57;15.80;99.90
13072;DHT22;6602;58.934;11.166;2023-07-13T03:14:59;15.70;99.90
13072;DHT22;6602;58.934;11.166;2023-07-13T03:20:01;15.70;99.90
13072;DHT22;6602;58.934;11.166;2023-07-13T03:25:05;15.70;99.90
13072;DHT22;6602;58.934;11.166;2023-07-13T03:30:25;15.90;99.90
13072;DHT22;6602;58.934;11.166;2023-07-13T03:35:28;15.90;99.90
13072;DHT22;6602;58.934;11.166;2023-07-13T03:40:48;15.90;99.90
13072;DHT22;6602;58.934;11.166;2023-07-13T03:45:49;15.90;99.90
13072;DHT22;6602;58.934;11.166;2023-07-13T03:50:51;15.90;99.90
13072;DHT22;6602;58.934;11.166;2023-07-13T03:55:55;15.90;99.90
13072;DHT22;6602;58.934;11.166;2023-07-13T04:01:10;16.10;99.90
13072;DHT22;6602;58.934;11.166;2023-07-13T04:06:25;16.50;99.90
13072;DHT22;6602;58.934;11.166;2023-07-13T04:11:29;16.60;99.90
13072;DHT22;6602;58.934;11.166;2023-07-13T04:16:34;16.50;99.90
13072;DHT22;6602;58.934;11.166;2023-07-13T04:21:36;16.30;99.90
13072;DHT22;6602;58.934;11.166;2023-07-13T04:26:41;16.30;99.90
13072;DHT22;6602;58.934;11.166;2023-07-13T04:31:42;16.40;99.90
13072;DHT22;6602;58.934;11.166;2023-07-13T04:36:43;16.60;99.90
13072;DHT22;6602;58.934;11.166;2023-07-13T04:41:49;16.70;99.90
13072;DHT22;6602;58.934;11.166;2023-07-13T04:46:52;17.20;99.90
13072;DHT22;6602;58.934;11.166;2023-07-13T04:52:09;17.50;99.90
13072;DHT22;6602;58.934;11.166;2023-07-13T04:57:11;17.90;99.90
13072;DHT22;6602;58.934;11.166;2023-07-13T05:02:12;18.10;99.90
13072;DHT22;6602;58.934;11.166;2023-07-13T05:07:31;18.40;99.90
13072;DHT22;6602;58.934;11.166;2023-07-13T05:12:42;18.10;99.90
13072;DHT22;6602;58.934;11.166;2023-07-13T05:17:44;18.10;99.90
13072;DHT22;6602;58.934;11.166;2023-07-13T05:22:57;18.00;99.90
13072;DHT22;6602;58.934;11.166;2023-07-13T05:27:58;17.90;99.90
13072;DHT22;6602;58.934;11.166;2023-07-13T05:33:02;17.40;99.90
13072;DHT22;6602;58.934;11.166;2023-07-13T05:38:12;17.40;99.90
13072;DHT22;6602;58.934;11.166;2023-07-13T05:43:14;17.20;99.90
13072;DHT22;6602;58.934;11.166;2023-07-13T05:48:25;17.10;99.90
13072;DHT22;6602;58.934;11.166;2023-07-13T05:53:27;17.20;99.90
13072;DHT22;6602;58.934;11.166;2023-07-13T05:58:40;17.50;99.90
13072;DHT22;6602;58.934;11.166;2023-07-13T06:03:45;17.80;99.90
13072;DHT22;6602;58.934;11.166;2023-07-13T06:08:53;17.50;99.90
13072;DHT22;6602;58.934;11.166;2023-07-13T06:14:06;17.10;99.90
13072;DHT22;6602;58.934;11.166;2023-07-13T06:19:10;17.00;99.90
13072;DHT22;6602;58.934;11.166;2023-07-13T06:24:13;17.10;99.90
13072;DHT22;6602;58.934;11.166;2023-07-13T06:29:34;17.10;99.90
13072;DHT22;6602;58.934;11.166;2023-07-13T06:34:44;17.10;99.90
13072;DHT22;6602;58.934;11.166;2023-07-13T06:39:47;17.10;99.90
13072;DHT22;6602;58.934;11.166;2023-07-13T06:44:50;17.00;99.90
13072;DHT22;6602;58.934;11.166;2023-07-13T06:49:54;17.00;99.90
13072;DHT22;6602;58.934;11.166;2023-07-13T06:54:56;17.20;99.90
13072;DHT22;6602;58.934;11.166;2023-07-13T06:59:57;17.30;99.90
13072;DHT22;6602;58.934;11.166;2023-07-13T07:05:18;17.30;99.90
13072;DHT22;6602;58.934;11.166;2023-07-13T07:10:22;17.60;99.90
13072;DHT22;6602;58.934;11.166;2023-07-13T07:15:25;18.30;99.90
13072;DHT22;6602;58.934;11.166;2023-07-13T07:20:27;18.70;99.90
13072;DHT22;6602;58.934;11.166;2023-07-13T07:25:29;18.90;99.90
13072;DHT22;6602;58.934;11.166;2023-07-13T07:30:41;18.70;99.90
13072;DHT22;6602;58.934;11.166;2023-07-13T07:35:49;18.70;99.90
13072;DHT22;6602;58.934;11.166;2023-07-13T07:41:05;18.70;99.90
13072;DHT22;6602;58.934;11.166;2023-07-13T07:46:25;18.30;99.90
13072;DHT22;6602;58.934;11.166;2023-07-13T07:51:26;17.90;99.90
13072;DHT22;6602;58.934;11.166;2023-07-13T07:56:28;17.80;99.90
13072;DHT22;6602;58.934;11.166;2023-07-13T08:01:31;18.10;99.90
13072;DHT22;6602;58.934;11.166;2023-07-13T08:06:52;18.10;99.90
13072;DHT22;6602;58.934;11.166;2023-07-13T08:12:03;18.40;99.90
13072;DHT22;6602;58.934;11.166;2023-07-13T08:17:10;18.30;99.90
13072;DHT22;6602;58.934;11.166;2023-07-13T08:22:35;18.10;99.90
13072;DHT22;6602;58.934;11.166;2023-07-13T08:27:55;18.00;99.90
13072;DHT22;6602;58.934;11.166;2023-07-13T08:33:00;18.40;99.90
13072;DHT22;6602;58.934;11.166;2023-07-13T08:38:01;18.70;99.90
13072;DHT22;6602;58.934;11.166;2023-07-13T08:43:03;18.60;99.90
13072;DHT22;6602;58.934;11.166;2023-07-13T08:48:13;18.30;99.90
13072;DHT22;6602;58.934;11.166;2023-07-13T08:53:17;18.30;99.90
13072;DHT22;6602;58.934;11.166;2023-07-13T08:58:42;18.20;99.90
13072;DHT22;6602;58.934;11.166;2023-07-13T09:04:11;18.60;99.90
13072;DHT22;6602;58.934;11.166;2023-07-13T09:20:40;19.70;99.90
13072;DHT22;6602;58.934;11.166;2023-07-13T09:26:25;19.90;99.90
13072;DHT22;6602;58.934;11.166;2023-07-13T09:31:54;19.50;99.90
13072;DHT22;6602;58.934;11.166;2023-07-13T09:37:00;19.30;99.90
13072;DHT22;6602;58.934;11.166;2023-07-13T09:42:27;19.60;99.90
13072;DHT22;6602;58.934;11.166;2023-07-13T09:47:47;19.90;99.90
13072;DHT22;6602;58.934;11.166;2023-07-13T09:52:51;19.40;99.90
13072;DHT22;6602;58.934;11.166;2023-07-13T09:58:16;19.50;99.90
13072;DHT22;6602;58.934;11.166;2023-07-13T10:03:30;19.50;99.90
13072;DHT22;6602;58.934;11.166;2023-07-13T10:08:48;19.80;99.90
13072;DHT22;6602;58.934;11.166;2023-07-13T10:13:55;19.80;99.90
13072;DHT22;6602;58.934;11.166;2023-07-13T10:19:23;19.90;99.90
13072;DHT22;6602;58.934;11.166;2023-07-13T10:24:49;19.50;99.90
13072;DHT22;6602;58.934;11.166;2023-07-13T10:30:25;19.60;99.90
13072;DHT22;6602;58.934;11.166;2023-07-13T10:35:30;19.20;99.90
13072;DHT22;6602;58.934;11.166;2023-07-13T10:40:38;19.40;99.90
13072;DHT22;6602;58.934;11.166;2023-07-13T10:45:48;19.40;99.90
13072;DHT22;6602;58.934;11.166;2023-07-13T10:50:59;19.40;99.90
13072;DHT22;6602;58.934;11.166;2023-07-13T10:56:28;19.70;99.90
13072;DHT22;6602;58.934;11.166;2023-07-13T11:02:05;19.90;99.90
13072;DHT22;6602;58.934;11.166;2023-07-13T11:07:51;20.10;99.90
13072;DHT22;6602;58.934;11.166;2023-07-13T11:13:26;20.30;99.90
13072;DHT22;6602;58.934;11.166;2023-07-13T11:18:30;20.30;99.90
13072;DHT22;6602;58.934;11.166;2023-07-13T11:29:39;19.90;99.90
13072;DHT22;6602;58.934;11.166;2023-07-13T11:34:43;20.00;99.90
13072;DHT22;6602;58.934;11.166;2023-07-13T11:40:03;20.00;99.90
13072;DHT22;6602;58.934;11.166;2023-07-13T11:45:31;20.30;99.90
13072;DHT22;6602;58.934;11.166;2023-07-13T11:50:54;20.50;99.90
13072;DHT22;6602;58.934;11.166;2023-07-13T11:55:57;20.00;99.90
13072;DHT22;6602;58.934;11.166;2023-07-13T12:01:10;19.70;99.90
13072;DHT22;6602;58.934;11.166;2023-07-13T12:06:28;19.70;99.90
13072;DHT22;6602;58.934;11.166;2023-07-13T12:11:49;19.70;99.90
13072;DHT22;6602;58.934;11.166;2023-07-13T12:16:59;19.80;99.90
13072;DHT22;6602;58.934;11.166;2023-07-13T12:22:00;19.70;99.90
13072;DHT22;6602;58.934;11.166;2023-07-13T12:27:05;19.70;99.90
13072;DHT22;6602;58.934;11.166;2023-07-13T12:32:17;19.60;99.90
13072;DHT22;6602;58.934;11.166;2023-07-13T12:37:23;19.60;99.90
13072;DHT22;6602;58.934;11.166;2023-07-13T12:42:31;19.70;99.90
13072;DHT22;6602;58.934;11.166;2023-07-13T12:47:49;19.70;99.90
13072;DHT22;6602;58.934;11.166;2023-07-13T12:52:53;19.60;99.90
13072;DHT22;6602;58.934;11.166;2023-07-13T12:58:22;19.60;99.90
13072;DHT22;6602;58.934;11.166;2023-07-13T13:04:08;19.70;99.90
13072;DHT22;6602;58.934;11.166;2023-07-13T13:09:02;19.60;99.90
13072;DHT22;6602;58.934;11.166;2023-07-13T13:14:04;19.50;99.90
13072;DHT22;6602;58.934;11.166;2023-07-13T13:19:20;19.30;99.90
13072;DHT22;6602;58.934;11.166;2023-07-13T13:24:27;19.30;99.90
13072;DHT22;6602;58.934;11.166;2023-07-13T13:29:39;19.30;99.90
13072;DHT22;6602;58.934;11.166;2023-07-13T13:34:42;19.30;99.90
13072;DHT22;6602;58.934;11.166;2023-07-13T13:39:45;19.20;99.90
13072;DHT22;6602;58.934;11.166;2023-07-13T13:44:55;19.00;99.90
13072;DHT22;6602;58.934;11.166;2023-07-13T13:49:58;19.10;99.90
13072;DHT22;6602;58.934;11.166;2023-07-13T13:55:14;19.00;99.90
13072;DHT22;6602;58.934;11.166;2023-07-13T14:00:17;19.10;99.90
13072;DHT22;6602;58.934;11.166;2023-07-13T14:05:22;19.00;99.90
13072;DHT22;6602;58.934;11.166;2023-07-13T14:10:43;18.70;99.90
13072;DHT22;6602;58.934;11.166;2023-07-13T14:15:44;18.70;99.90
13072;DHT22;6602;58.934;11.166;2023-07-13T14:20:49;18.60;99.90
13072;DHT22;6602;58.934;11.166;2023-07-13T14:26:11;18.40;99.90
13072;DHT22;6602;58.934;11.166;2023-07-13T14:31:15;18.50;99.90
13072;DHT22;6602;58.934;11.166;2023-07-13T14:41:30;18.40;99.90
13072;DHT22;6602;58.934;11.166;2023-07-13T14:46:44;18.30;99.90
13072;DHT22;6602;58.934;11.166;2023-07-13T14:51:58;18.20;99.90
13072;DHT22;6602;58.934;11.166;2023-07-13T14:57:19;18.20;99.90
13072;DHT22;6602;58.934;11.166;2023-07-13T15:02:33;18.40;99.90
13072;DHT22;6602;58.934;11.166;2023-07-13T15:07:36;18.40;99.90
13072;DHT22;6602;58.934;11.166;2023-07-13T15:13:12;18.50;99.90
13072;DHT22;6602;58.934;11.166;2023-07-13T15:18:16;18.30;99.90
13072;DHT22;6602;58.934;11.166;2023-07-13T15:23:24;18.20;99.90
13072;DHT22;6602;58.934;11.166;2023-07-13T15:28:30;18.10;99.90
13072;DHT22;6602;58.934;11.166;2023-07-13T15:33:34;18.00;99.90
13072;DHT22;6602;58.934;11.166;2023-07-13T15:38:54;18.00;99.90
13072;DHT22;6602;58.934;11.166;2023-07-13T15:43:58;18.10;99.90
13072;DHT22;6602;58.934;11.166;2023-07-13T15:49:01;18.00;99.90
13072;DHT22;6602;58.934;11.166;2023-07-13T15:54:04;18.20;99.90
13072;DHT22;6602;58.934;11.166;2023-07-13T15:59:11;18.30;99.90
13072;DHT22;6602;58.934;11.166;2023-07-13T16:04:15;18.30;99.90
13072;DHT22;6602;58.934;11.166;2023-07-13T16:15:28;18.20;99.90
13072;DHT22;6602;58.934;11.166;2023-07-13T16:20:32;18.20;99.90
13072;DHT22;6602;58.934;11.166;2023-07-13T16:25:56;18.20;99.90
13072;DHT22;6602;58.934;11.166;2023-07-13T16:31:07;18.20;99.90
13072;DHT22;6602;58.934;11.166;2023-07-13T16:36:12;18.20;99.90
13072;DHT22;6602;58.934;11.166;2023-07-13T16:41:19;18.30;99.90
13072;DHT22;6602;58.934;11.166;2023-07-13T16:46:33;18.30;99.90
13072;DHT22;6602;58.934;11.166;2023-07-13T16:51:34;18.30;99.90
13072;DHT22;6602;58.934;11.166;2023-07-13T16:56:47;18.30;99.90
13072;DHT22;6602;58.934;11.166;2023-07-13T17:02:11;18.20;99.90
13072;DHT22;6602;58.934;11.166;2023-07-13T17:07:15;18.30;99.90
13072;DHT22;6602;58.934;11.166;2023-07-13T17:12:19;18.20;99.90
13072;DHT22;6602;58.934;11.166;2023-07-13T17:17:37;18.10;99.90
13072;DHT22;6602;58.934;11.166;2023-07-13T17:22:44;18.00;99.90
13072;DHT22;6602;58.934;11.166;2023-07-13T17:27:55;18.10;99.90
13072;DHT22;6602;58.934;11.166;2023-07-13T17:33:00;18.10;99.90
13072;DHT22;6602;58.934;11.166;2023-07-13T17:38:13;18.10;99.90
13072;DHT22;6602;58.934;11.166;2023-07-13T17:43:22;17.90;99.90
13072;DHT22;6602;58.934;11.166;2023-07-13T17:48:40;17.70;99.90
13072;DHT22;6602;58.934;11.166;2023-07-13T17:54:17;17.60;99.90
13072;DHT22;6602;58.934;11.166;2023-07-13T17:59:33;17.50;99.90
13072;DHT22;6602;58.934;11.166;2023-07-13T18:04:38;17.40;99.90
13072;DHT22;6602;58.934;11.166;2023-07-13T18:09:43;17.30;99.90
13072;DHT22;6602;58.934;11.166;2023-07-13T18:14:48;17.30;99.90
13072;DHT22;6602;58.934;11.166;2023-07-13T18:19:53;17.30;99.90
13072;DHT22;6602;58.934;11.166;2023-07-13T18:24:56;17.30;99.90
13072;DHT22;6602;58.934;11.166;2023-07-13T18:30:00;17.30;99.90
13072;DHT22;6602;58.934;11.166;2023-07-13T18:35:02;17.30;99.90
13072;DHT22;6602;58.934;11.166;2023-07-13T18:40:15;17.40;99.90
13072;DHT22;6602;58.934;11.166;2023-07-13T18:45:17;17.60;99.90
13072;DHT22;6602;58.934;11.166;2023-07-13T18:50:24;17.70;99.90
13072;DHT22;6602;58.934;11.166;2023-07-13T18:55:27;17.80;99.90
13072;DHT22;6602;58.934;11.166;2023-07-13T19:00:32;17.80;99.90
13072;DHT22;6602;58.934;11.166;2023-07-13T19:05:40;17.70;99.90
13072;DHT22;6602;58.934;11.166;2023-07-13T19:11:12;17.70;99.90
13072;DHT22;6602;58.934;11.166;2023-07-13T19:16:14;17.70;99.90
13072;DHT22;6602;58.934;11.166;2023-07-13T19:21:33;17.60;99.90
13072;DHT22;6602;58.934;11.166;2023-07-13T19:26:50;17.60;99.90
13072;DHT22;6602;58.934;11.166;2023-07-13T19:31:59;17.60;99.90
13072;DHT22;6602;58.934;11.166;2023-07-13T19:37:04;17.50;99.90
13072;DHT22;6602;58.934;11.166;2023-07-13T19:42:28;17.40;99.90
13072;DHT22;6602;58.934;11.166;2023-07-13T19:47:35;17.40;99.90
13072;DHT22;6602;58.934;11.166;2023-07-13T19:52:45;17.30;99.90
13072;DHT22;6602;58.934;11.166;2023-07-13T19:57:52;17.30;99.90
13072;DHT22;6602;58.934;11.166;2023-07-13T20:03:21;17.20;99.90
13072;DHT22;6602;58.934;11.166;2023-07-13T20:08:32;17.10;99.90
13072;DHT22;6602;58.934;11.166;2023-07-13T20:13:40;17.10;99.90
13072;DHT22;6602;58.934;11.166;2023-07-13T20:18:50;17.10;99.90
13072;DHT22;6602;58.934;11.166;2023-07-13T20:24:04;17.10;99.90
13072;DHT22;6602;58.934;11.166;2023-07-13T20:29:17;17.10;99.90
13072;DHT22;6602;58.934;11.166;2023-07-13T20:34:25;17.10;99.90
13072;DHT22;6602;58.934;11.166;2023-07-13T20:40:05;17.20;99.90
13072;DHT22;6602;58.934;11.166;2023-07-13T20:45:16;17.20;99.90
13072;DHT22;6602;58.934;11.166;2023-07-13T20:50:49;17.30;99.90
13072;DHT22;6602;58.934;11.166;2023-07-13T20:56:25;17.30;99.90
13072;DHT22;6602;58.934;11.166;2023-07-13T21:07:26;17.40;99.90
13072;DHT22;6602;58.934;11.166;2023-07-13T21:12:48;17.40;99.90
13072;DHT22;6602;58.934;11.166;2023-07-13T21:17:56;17.50;99.90
13072;DHT22;6602;58.934;11.166;2023-07-13T21:28:35;17.50;99.90
13072;DHT22;6602;58.934;11.166;2023-07-13T21:33:39;17.60;99.90
13072;DHT22;6602;58.934;11.166;2023-07-13T21:38:44;17.60;99.90
13072;DHT22;6602;58.934;11.166;2023-07-13T21:44:01;17.70;99.90
13072;DHT22;6602;58.934;11.166;2023-07-13T21:49:10;17.70;99.90
13072;DHT22;6602;58.934;11.166;2023-07-13T21:54:19;17.80;99.90
13072;DHT22;6602;58.934;11.166;2023-07-13T21:59:28;17.80;99.90
13072;DHT22;6602;58.934;11.166;2023-07-13T22:04:36;17.80;99.90
13072;DHT22;6602;58.934;11.166;2023-07-13T22:09:38;17.80;99.90
13072;DHT22;6602;58.934;11.166;2023-07-13T22:14:40;17.80;99.90
13072;DHT22;6602;58.934;11.166;2023-07-13T22:19:44;17.80;99.90
13072;DHT22;6602;58.934;11.166;2023-07-13T22:24:53;17.80;99.90
13072;DHT22;6602;58.934;11.166;2023-07-13T22:29:57;17.80;99.90
13072;DHT22;6602;58.934;11.166;2023-07-13T22:35:01;17.80;99.90
13072;DHT22;6602;58.934;11.166;2023-07-13T22:40:20;17.80;99.90
13072;DHT22;6602;58.934;11.166;2023-07-13T22:45:23;17.80;99.90
13072;DHT22;6602;58.934;11.166;2023-07-13T22:50:24;17.80;99.90
13072;DHT22;6602;58.934;11.166;2023-07-13T22:55:25;17.70;99.90
13072;DHT22;6602;58.934;11.166;2023-07-13T23:00:27;17.70;99.90
13072;DHT22;6602;58.934;11.166;2023-07-13T23:05:34;17.60;99.90
13072;DHT22;6602;58.934;11.166;2023-07-13T23:10:35;17.60;99.90
13072;DHT22;6602;58.934;11.166;2023-07-13T23:15:39;17.50;99.90
13072;DHT22;6602;58.934;11.166;2023-07-13T23:20:47;17.50;99.90
13072;DHT22;6602;58.934;11.166;2023-07-13T23:25:49;17.40;99.90
13072;DHT22;6602;58.934;11.166;2023-07-13T23:30:50;17.50;99.90
13072;DHT22;6602;58.934;11.166;2023-07-13T23:35:57;17.40;99.90
13072;DHT22;6602;58.934;11.166;2023-07-13T23:41:17;17.40;99.90
13072;DHT22;6602;58.934;11.166;2023-07-13T23:51:56;17.30;99.90
13072;DHT22;6602;58.934;11.166;2023-07-13T23:57:05;17.30;99.90
